createdAt,value
2018-06-25T00:00:04.843Z,8.04672
2018-06-25T00:00:17.318Z,4.828032
2018-06-25T00:00:29.760Z,4.828032
2018-06-25T00:00:42.210Z,3.218688
2018-06-25T00:00:54.830Z,9.656064
2018-06-25T00:01:07.243Z,6.437376
2018-06-25T00:01:19.911Z,4.828032
2018-06-25T00:01:32.354Z,8.04672
2018-06-25T00:01:44.799Z,6.437376
2018-06-25T00:01:57.218Z,8.04672
2018-06-25T00:02:09.655Z,9.656064
2018-06-25T00:02:22.122Z,8.04672
2018-06-25T00:02:34.534Z,8.04672
2018-06-25T00:02:46.969Z,11.265408
2018-06-25T00:02:59.382Z,11.265408
2018-06-25T00:03:11.778Z,9.656064
2018-06-25T00:03:24.196Z,12.874752
2018-06-25T00:03:36.608Z,9.656064
2018-06-25T00:03:49.022Z,8.04672
2018-06-25T00:04:01.414Z,8.04672
2018-06-25T00:04:13.815Z,8.04672
2018-06-25T00:04:26.229Z,8.04672
2018-06-25T00:04:38.641Z,4.828032
2018-06-25T00:04:51.033Z,4.828032
2018-06-25T00:05:03.455Z,8.04672
2018-06-25T00:05:15.875Z,6.437376
2018-06-25T00:05:28.296Z,8.04672
2018-06-25T00:05:40.755Z,9.656064
2018-06-25T00:05:53.152Z,8.04672
2018-06-25T00:06:05.555Z,11.265408
2018-06-25T00:06:17.972Z,6.437376
2018-06-25T00:06:30.397Z,8.04672
2018-06-25T00:06:42.818Z,8.04672
2018-06-25T00:06:55.217Z,4.828032
2018-06-25T00:07:07.616Z,9.656064
2018-06-25T00:07:20.008Z,8.04672
2018-06-25T00:07:32.476Z,6.437376
2018-06-25T00:07:44.903Z,8.04672
2018-06-25T00:07:57.443Z,8.04672
2018-06-25T00:08:09.853Z,6.437376
2018-06-25T00:08:22.256Z,4.828032
2018-06-25T00:08:34.672Z,3.218688
2018-06-25T00:08:47.066Z,9.656064
2018-06-25T00:08:59.473Z,11.265408
2018-06-25T00:09:11.892Z,9.656064
2018-06-25T00:09:24.375Z,4.828032
2018-06-25T00:09:36.836Z,6.437376
2018-06-25T00:09:49.304Z,6.437376
2018-06-25T00:10:01.732Z,6.437376
2018-06-25T00:10:14.167Z,4.828032
2018-06-25T00:10:26.579Z,4.828032
2018-06-25T00:10:38.966Z,6.437376
2018-06-25T00:10:51.371Z,4.828032
2018-06-25T00:11:03.774Z,6.437376
2018-06-25T00:11:16.177Z,6.437376
2018-06-25T00:11:28.615Z,6.437376
2018-06-25T00:11:41.023Z,6.437376
2018-06-25T00:11:53.452Z,6.437376
2018-06-25T00:12:05.860Z,6.437376
2018-06-25T00:12:18.325Z,6.437376
2018-06-25T00:12:30.718Z,6.437376
2018-06-25T00:12:43.121Z,8.04672
2018-06-25T00:12:55.530Z,9.656064
2018-06-25T00:13:07.943Z,6.437376
2018-06-25T00:13:20.341Z,8.04672
2018-06-25T00:13:32.744Z,8.04672
2018-06-25T00:13:45.183Z,3.218688
2018-06-25T00:13:57.565Z,6.437376
2018-06-25T00:14:09.977Z,6.437376
2018-06-25T00:14:22.383Z,6.437376
2018-06-25T00:14:34.794Z,8.04672
2018-06-25T00:14:47.208Z,6.437376
2018-06-25T00:14:59.601Z,3.218688
2018-06-25T00:15:12.016Z,6.437376
2018-06-25T00:15:24.405Z,4.828032
2018-06-25T00:15:36.814Z,3.218688
2018-06-25T00:15:49.230Z,4.828032
2018-06-25T00:16:01.660Z,3.218688
2018-06-25T00:16:14.065Z,4.828032
2018-06-25T00:16:26.460Z,3.218688
2018-06-25T00:16:38.845Z,1.609344
2018-06-25T00:16:51.261Z,1.609344
2018-06-25T00:17:03.657Z,3.218688
2018-06-25T00:17:16.071Z,3.218688
2018-06-25T00:17:28.600Z,1.609344
2018-06-25T00:17:41.068Z,3.218688
2018-06-25T00:17:53.474Z,1.609344
2018-06-25T00:18:05.877Z,1.609344
2018-06-25T00:18:18.291Z,1.609344
2018-06-25T00:18:30.700Z,6.437376
2018-06-25T00:18:43.105Z,8.04672
2018-06-25T00:18:55.511Z,6.437376
2018-06-25T00:19:07.946Z,6.437376
2018-06-25T00:19:20.339Z,1.609344
2018-06-25T00:19:32.776Z,1.609344
2018-06-25T00:19:45.180Z,0
2018-06-25T00:19:57.654Z,1.609344
2018-06-25T00:20:10.095Z,6.437376
2018-06-25T00:20:22.493Z,6.437376
2018-06-25T00:20:35.075Z,3.218688
2018-06-25T00:20:47.483Z,3.218688
2018-06-25T00:20:59.884Z,4.828032
2018-06-25T00:21:12.303Z,3.218688
2018-06-25T00:21:24.745Z,3.218688
2018-06-25T00:21:37.136Z,3.218688
2018-06-25T00:21:49.530Z,6.437376
2018-06-25T00:22:01.921Z,3.218688
2018-06-25T00:22:14.324Z,4.828032
2018-06-25T00:22:26.720Z,4.828032
2018-06-25T00:22:39.137Z,6.437376
2018-06-25T00:22:51.548Z,1.609344
2018-06-25T00:23:03.954Z,3.218688
2018-06-25T00:23:16.359Z,3.218688
2018-06-25T00:23:28.772Z,3.218688
2018-06-25T00:23:41.179Z,1.609344
2018-06-25T00:23:53.588Z,3.218688
2018-06-25T00:24:06.010Z,3.218688
2018-06-25T00:24:18.397Z,3.218688
2018-06-25T00:24:30.803Z,4.828032
2018-06-25T00:24:43.235Z,4.828032
2018-06-25T00:24:55.638Z,9.656064
2018-06-25T00:25:08.069Z,8.04672
2018-06-25T00:25:20.487Z,6.437376
2018-06-25T00:25:32.942Z,6.437376
2018-06-25T00:25:45.515Z,3.218688
2018-06-25T00:25:57.923Z,3.218688
2018-06-25T00:26:10.331Z,3.218688
2018-06-25T00:26:22.737Z,3.218688
2018-06-25T00:26:35.148Z,8.04672
2018-06-25T00:26:47.700Z,8.04672
2018-06-25T00:27:00.105Z,6.437376
2018-06-25T00:27:12.529Z,6.437376
2018-06-25T00:27:24.940Z,4.828032
2018-06-25T00:27:37.341Z,3.218688
2018-06-25T00:27:49.795Z,6.437376
2018-06-25T00:28:02.197Z,4.828032
2018-06-25T00:28:14.606Z,6.437376
2018-06-25T00:28:27.040Z,3.218688
2018-06-25T00:28:39.448Z,3.218688
2018-06-25T00:28:51.848Z,1.609344
2018-06-25T00:29:04.241Z,8.04672
2018-06-25T00:29:16.702Z,8.04672
2018-06-25T00:29:29.100Z,6.437376
2018-06-25T00:29:41.518Z,3.218688
2018-06-25T00:29:53.945Z,4.828032
2018-06-25T00:30:06.365Z,3.218688
2018-06-25T00:30:18.781Z,3.218688
2018-06-25T00:30:31.188Z,4.828032
2018-06-25T00:30:43.606Z,3.218688
2018-06-25T00:30:56.033Z,8.04672
2018-06-25T00:31:08.448Z,6.437376
2018-06-25T00:31:20.908Z,3.218688
2018-06-25T00:31:33.330Z,3.218688
2018-06-25T00:31:45.783Z,3.218688
2018-06-25T00:31:58.190Z,6.437376
2018-06-25T00:32:10.592Z,3.218688
2018-06-25T00:32:23.013Z,3.218688
2018-06-25T00:32:35.400Z,6.437376
2018-06-25T00:32:47.800Z,8.04672
2018-06-25T00:33:00.517Z,6.437376
2018-06-25T00:33:12.938Z,8.04672
2018-06-25T00:33:25.348Z,8.04672
2018-06-25T00:33:37.758Z,3.218688
2018-06-25T00:33:50.174Z,6.437376
2018-06-25T00:34:02.559Z,8.04672
2018-06-25T00:34:14.975Z,6.437376
2018-06-25T00:34:27.367Z,4.828032
2018-06-25T00:34:39.788Z,6.437376
2018-06-25T00:34:52.187Z,6.437376
2018-06-25T00:35:04.639Z,8.04672
2018-06-25T00:35:17.099Z,9.656064
2018-06-25T00:35:29.492Z,9.656064
2018-06-25T00:35:41.893Z,8.04672
2018-06-25T00:35:54.304Z,6.437376
2018-06-25T00:36:06.711Z,6.437376
2018-06-25T00:36:19.108Z,4.828032
2018-06-25T00:36:31.503Z,3.218688
2018-06-25T00:36:43.914Z,8.04672
2018-06-25T00:36:56.349Z,6.437376
2018-06-25T00:37:08.741Z,3.218688
2018-06-25T00:37:21.153Z,1.609344
2018-06-25T00:37:33.581Z,4.828032
2018-06-25T00:37:45.994Z,4.828032
2018-06-25T00:37:58.379Z,8.04672
2018-06-25T00:38:10.776Z,4.828032
2018-06-25T00:38:23.202Z,9.656064
2018-06-25T00:38:35.609Z,8.04672
2018-06-25T00:38:48.029Z,6.437376
2018-06-25T00:39:00.436Z,8.04672
2018-06-25T00:39:12.862Z,6.437376
2018-06-25T00:39:25.263Z,9.656064
2018-06-25T00:39:37.669Z,6.437376
2018-06-25T00:39:50.076Z,11.265408
2018-06-25T00:40:02.489Z,6.437376
2018-06-25T00:40:14.910Z,3.218688
2018-06-25T00:40:27.307Z,8.04672
2018-06-25T00:40:39.728Z,9.656064
2018-06-25T00:40:52.139Z,8.04672
2018-06-25T00:41:04.549Z,6.437376
2018-06-25T00:41:16.937Z,8.04672
2018-06-25T00:41:29.332Z,8.04672
2018-06-25T00:41:41.744Z,8.04672
2018-06-25T00:41:54.165Z,6.437376
2018-06-25T00:42:06.644Z,8.04672
2018-06-25T00:42:19.071Z,6.437376
2018-06-25T00:42:31.484Z,8.04672
2018-06-25T00:42:43.958Z,9.656064
2018-06-25T00:42:56.351Z,11.265408
2018-06-25T00:43:08.772Z,9.656064
2018-06-25T00:43:21.176Z,8.04672
2018-06-25T00:43:33.576Z,11.265408
2018-06-25T00:43:45.973Z,8.04672
2018-06-25T00:43:58.386Z,6.437376
2018-06-25T00:44:10.788Z,8.04672
2018-06-25T00:44:23.187Z,4.828032
2018-06-25T00:44:35.737Z,6.437376
2018-06-25T00:44:48.125Z,6.437376
2018-06-25T00:45:00.527Z,6.437376
2018-06-25T00:45:12.966Z,6.437376
2018-06-25T00:45:25.367Z,4.828032
2018-06-25T00:45:37.778Z,6.437376
2018-06-25T00:45:50.315Z,6.437376
2018-06-25T00:46:02.736Z,8.04672
2018-06-25T00:46:15.168Z,6.437376
2018-06-25T00:46:27.569Z,8.04672
2018-06-25T00:46:39.971Z,6.437376
2018-06-25T00:46:52.381Z,4.828032
2018-06-25T00:47:04.796Z,3.218688
2018-06-25T00:47:17.213Z,6.437376
2018-06-25T00:47:29.628Z,6.437376
2018-06-25T00:47:42.189Z,3.218688
2018-06-25T00:47:54.603Z,3.218688
2018-06-25T00:48:07.004Z,6.437376
2018-06-25T00:48:19.423Z,6.437376
2018-06-25T00:48:31.830Z,8.04672
2018-06-25T00:48:44.333Z,4.828032
2018-06-25T00:48:56.732Z,6.437376
2018-06-25T00:49:09.132Z,3.218688
2018-06-25T00:49:21.531Z,4.828032
2018-06-25T00:49:33.932Z,8.04672
2018-06-25T00:49:46.331Z,6.437376
2018-06-25T00:49:58.734Z,3.218688
2018-06-25T00:50:11.543Z,3.218688
2018-06-25T00:50:23.942Z,3.218688
2018-06-25T00:50:36.342Z,3.218688
2018-06-25T00:50:48.778Z,3.218688
2018-06-25T00:51:01.185Z,3.218688
2018-06-25T00:51:13.609Z,3.218688
2018-06-25T00:51:26.008Z,3.218688
2018-06-25T00:51:38.399Z,3.218688
2018-06-25T00:51:50.797Z,6.437376
2018-06-25T00:52:03.222Z,3.218688
2018-06-25T00:52:15.638Z,1.609344
2018-06-25T00:52:28.032Z,3.218688
2018-06-25T00:52:40.431Z,3.218688
2018-06-25T00:52:52.830Z,3.218688
2018-06-25T00:53:05.233Z,1.609344
2018-06-25T00:53:17.669Z,1.609344
2018-06-25T00:53:30.063Z,1.609344
2018-06-25T00:53:42.516Z,3.218688
2018-06-25T00:53:54.921Z,1.609344
2018-06-25T00:54:07.335Z,1.609344
2018-06-25T00:54:19.727Z,1.609344
2018-06-25T00:54:32.120Z,1.609344
2018-06-25T00:54:44.530Z,1.609344
2018-06-25T00:54:56.951Z,1.609344
2018-06-25T00:55:09.364Z,1.609344
2018-06-25T00:55:21.837Z,1.609344
2018-06-25T00:55:34.234Z,1.609344
2018-06-25T00:55:46.637Z,1.609344
2018-06-25T00:55:59.037Z,1.609344
2018-06-25T00:56:11.453Z,0
2018-06-25T00:56:23.844Z,1.609344
2018-06-25T00:56:36.265Z,4.828032
2018-06-25T00:56:48.687Z,3.218688
2018-06-25T00:57:01.091Z,3.218688
2018-06-25T00:57:13.545Z,3.218688
2018-06-25T00:57:25.956Z,1.609344
2018-06-25T00:57:38.360Z,3.218688
2018-06-25T00:57:50.751Z,1.609344
2018-06-25T00:58:03.175Z,3.218688
2018-06-25T00:58:15.598Z,3.218688
2018-06-25T00:58:27.998Z,6.437376
2018-06-25T00:58:40.410Z,3.218688
2018-06-25T00:58:52.830Z,6.437376
2018-06-25T00:59:05.234Z,4.828032
2018-06-25T00:59:17.652Z,1.609344
2018-06-25T00:59:30.056Z,3.218688
2018-06-25T00:59:42.446Z,1.609344
2018-06-25T00:59:54.842Z,3.218688
2018-06-25T01:00:07.262Z,3.218688
2018-06-25T01:00:19.735Z,1.609344
2018-06-25T01:00:32.173Z,3.218688
2018-06-25T01:00:44.621Z,1.609344
2018-06-25T01:00:57.180Z,3.218688
2018-06-25T01:01:09.584Z,3.218688
2018-06-25T01:01:22.113Z,3.218688
2018-06-25T01:01:34.541Z,6.437376
2018-06-25T01:01:46.954Z,6.437376
2018-06-25T01:01:59.360Z,3.218688
2018-06-25T01:02:11.759Z,1.609344
2018-06-25T01:02:24.183Z,3.218688
2018-06-25T01:02:36.596Z,3.218688
2018-06-25T01:02:49.052Z,6.437376
2018-06-25T01:03:01.500Z,6.437376
2018-06-25T01:03:13.915Z,6.437376
2018-06-25T01:03:26.305Z,3.218688
2018-06-25T01:03:38.737Z,3.218688
2018-06-25T01:03:51.152Z,8.04672
2018-06-25T01:04:03.622Z,6.437376
2018-06-25T01:04:16.029Z,6.437376
2018-06-25T01:04:28.422Z,8.04672
2018-06-25T01:04:40.819Z,6.437376
2018-06-25T01:04:53.236Z,3.218688
2018-06-25T01:05:05.680Z,6.437376
2018-06-25T01:05:18.075Z,6.437376
2018-06-25T01:05:30.525Z,3.218688
2018-06-25T01:05:42.917Z,3.218688
2018-06-25T01:05:55.445Z,1.609344
2018-06-25T01:06:08.741Z,6.437376
2018-06-25T01:06:21.195Z,6.437376
2018-06-25T01:06:33.587Z,4.828032
2018-06-25T01:06:46.013Z,6.437376
2018-06-25T01:06:58.424Z,6.437376
2018-06-25T01:07:10.840Z,6.437376
2018-06-25T01:07:23.305Z,6.437376
2018-06-25T01:07:35.721Z,6.437376
2018-06-25T01:07:48.260Z,3.218688
2018-06-25T01:08:00.687Z,1.609344
2018-06-25T01:08:13.093Z,1.609344
2018-06-25T01:08:25.493Z,3.218688
2018-06-25T01:08:37.891Z,3.218688
2018-06-25T01:08:50.310Z,1.609344
2018-06-25T01:09:02.736Z,3.218688
2018-06-25T01:09:15.143Z,3.218688
2018-06-25T01:09:27.566Z,3.218688
2018-06-25T01:09:39.978Z,3.218688
2018-06-25T01:09:52.387Z,3.218688
2018-06-25T01:10:04.797Z,3.218688
2018-06-25T01:10:17.217Z,3.218688
2018-06-25T01:10:29.619Z,3.218688
2018-06-25T01:10:42.016Z,1.609344
2018-06-25T01:10:54.441Z,3.218688
2018-06-25T01:11:06.860Z,6.437376
2018-06-25T01:11:19.335Z,3.218688
2018-06-25T01:11:31.744Z,3.218688
2018-06-25T01:11:44.143Z,3.218688
2018-06-25T01:11:56.548Z,1.609344
2018-06-25T01:12:08.960Z,1.609344
2018-06-25T01:12:21.357Z,0
2018-06-25T01:12:33.748Z,1.609344
2018-06-25T01:12:46.141Z,0
2018-06-25T01:12:58.578Z,1.609344
2018-06-25T01:13:10.993Z,3.218688
2018-06-25T01:13:23.394Z,1.609344
2018-06-25T01:13:35.796Z,1.609344
2018-06-25T01:13:48.193Z,0
2018-06-25T01:14:00.581Z,1.609344
2018-06-25T01:14:12.984Z,1.609344
2018-06-25T01:14:25.381Z,0
2018-06-25T01:14:37.783Z,1.609344
2018-06-25T01:14:50.192Z,1.609344
2018-06-25T01:15:02.639Z,0
2018-06-25T01:15:15.104Z,0
2018-06-25T01:15:27.557Z,0
2018-06-25T01:15:39.970Z,0
2018-06-25T01:15:52.366Z,1.609344
2018-06-25T01:16:04.820Z,1.609344
2018-06-25T01:16:17.228Z,3.218688
2018-06-25T01:16:29.631Z,1.609344
2018-06-25T01:16:42.036Z,1.609344
2018-06-25T01:16:54.451Z,4.828032
2018-06-25T01:17:06.862Z,1.609344
2018-06-25T01:17:19.340Z,1.609344
2018-06-25T01:17:31.739Z,6.437376
2018-06-25T01:17:44.147Z,3.218688
2018-06-25T01:17:56.567Z,9.656064
2018-06-25T01:18:08.987Z,8.04672
2018-06-25T01:18:21.384Z,6.437376
2018-06-25T01:18:33.827Z,6.437376
2018-06-25T01:18:46.234Z,3.218688
2018-06-25T01:18:58.642Z,3.218688
2018-06-25T01:19:11.110Z,1.609344
2018-06-25T01:19:23.584Z,1.609344
2018-06-25T01:19:35.982Z,1.609344
2018-06-25T01:19:48.387Z,1.609344
2018-06-25T01:20:00.792Z,3.218688
2018-06-25T01:20:13.204Z,3.218688
2018-06-25T01:20:25.734Z,3.218688
2018-06-25T01:20:38.267Z,1.609344
2018-06-25T01:20:50.683Z,3.218688
2018-06-25T01:21:03.088Z,3.218688
2018-06-25T01:21:15.480Z,3.218688
2018-06-25T01:21:27.894Z,3.218688
2018-06-25T01:21:40.306Z,1.609344
2018-06-25T01:21:52.728Z,8.04672
2018-06-25T01:22:05.141Z,6.437376
2018-06-25T01:22:17.567Z,3.218688
2018-06-25T01:22:30.037Z,1.609344
2018-06-25T01:22:42.439Z,3.218688
2018-06-25T01:22:54.888Z,3.218688
2018-06-25T01:23:07.285Z,1.609344
2018-06-25T01:23:19.680Z,1.609344
2018-06-25T01:23:32.090Z,3.218688
2018-06-25T01:23:44.497Z,3.218688
2018-06-25T01:23:56.901Z,1.609344
2018-06-25T01:24:09.319Z,3.218688
2018-06-25T01:24:21.713Z,4.828032
2018-06-25T01:24:34.160Z,3.218688
2018-06-25T01:24:46.574Z,1.609344
2018-06-25T01:24:58.977Z,1.609344
2018-06-25T01:25:11.382Z,0
2018-06-25T01:25:23.889Z,0
2018-06-25T01:25:36.301Z,0
2018-06-25T01:25:48.710Z,0
2018-06-25T01:26:01.098Z,6.437376
2018-06-25T01:26:13.512Z,3.218688
2018-06-25T01:26:25.906Z,3.218688
2018-06-25T01:26:38.303Z,1.609344
2018-06-25T01:26:50.853Z,1.609344
2018-06-25T01:27:03.283Z,3.218688
2018-06-25T01:27:15.705Z,3.218688
2018-06-25T01:27:28.130Z,0
2018-06-25T01:27:40.537Z,1.609344
2018-06-25T01:27:52.955Z,3.218688
2018-06-25T01:28:05.347Z,1.609344
2018-06-25T01:28:17.746Z,3.218688
2018-06-25T01:28:30.139Z,6.437376
2018-06-25T01:28:42.544Z,6.437376
2018-06-25T01:28:54.940Z,4.828032
2018-06-25T01:29:07.348Z,4.828032
2018-06-25T01:29:19.768Z,6.437376
2018-06-25T01:29:32.176Z,6.437376
2018-06-25T01:29:44.622Z,6.437376
2018-06-25T01:29:57.034Z,3.218688
2018-06-25T01:30:09.451Z,6.437376
2018-06-25T01:30:21.857Z,6.437376
2018-06-25T01:30:34.277Z,3.218688
2018-06-25T01:30:46.691Z,3.218688
2018-06-25T01:30:59.076Z,1.609344
2018-06-25T01:31:11.481Z,1.609344
2018-06-25T01:31:23.876Z,3.218688
2018-06-25T01:31:36.308Z,1.609344
2018-06-25T01:31:48.724Z,1.609344
2018-06-25T01:32:01.144Z,1.609344
2018-06-25T01:32:13.554Z,0
2018-06-25T01:32:26.001Z,0
2018-06-25T01:32:38.393Z,0
2018-06-25T01:32:50.839Z,1.609344
2018-06-25T01:33:03.376Z,3.218688
2018-06-25T01:33:15.781Z,3.218688
2018-06-25T01:33:28.222Z,4.828032
2018-06-25T01:33:40.621Z,6.437376
2018-06-25T01:33:53.009Z,8.04672
2018-06-25T01:34:05.428Z,6.437376
2018-06-25T01:34:17.822Z,4.828032
2018-06-25T01:34:30.241Z,3.218688
2018-06-25T01:34:42.691Z,1.609344
2018-06-25T01:34:55.106Z,0
2018-06-25T01:35:07.512Z,0
2018-06-25T01:35:19.935Z,1.609344
2018-06-25T01:35:32.326Z,0
2018-06-25T01:35:44.720Z,0
2018-06-25T01:35:57.123Z,0
2018-06-25T01:36:09.535Z,1.609344
2018-06-25T01:36:21.945Z,4.828032
2018-06-25T01:36:34.344Z,3.218688
2018-06-25T01:36:46.737Z,4.828032
2018-06-25T01:36:59.160Z,1.609344
2018-06-25T01:37:11.600Z,3.218688
2018-06-25T01:37:24.005Z,1.609344
2018-06-25T01:37:36.412Z,1.609344
2018-06-25T01:37:48.812Z,1.609344
2018-06-25T01:38:01.260Z,9.656064
2018-06-25T01:38:13.670Z,6.437376
2018-06-25T01:38:26.088Z,6.437376
2018-06-25T01:38:38.496Z,3.218688
2018-06-25T01:38:50.896Z,1.609344
2018-06-25T01:39:03.289Z,3.218688
2018-06-25T01:39:15.685Z,3.218688
2018-06-25T01:39:28.092Z,1.609344
2018-06-25T01:39:40.489Z,1.609344
2018-06-25T01:39:52.889Z,1.609344
2018-06-25T01:40:05.299Z,1.609344
2018-06-25T01:40:17.704Z,1.609344
2018-06-25T01:40:30.142Z,1.609344
2018-06-25T01:40:42.562Z,0
2018-06-25T01:40:54.981Z,1.609344
2018-06-25T01:41:07.374Z,1.609344
2018-06-25T01:41:19.785Z,3.218688
2018-06-25T01:41:32.188Z,6.437376
2018-06-25T01:41:44.716Z,9.656064
2018-06-25T01:41:57.226Z,3.218688
2018-06-25T01:42:09.655Z,4.828032
2018-06-25T01:42:22.074Z,4.828032
2018-06-25T01:42:34.490Z,8.04672
2018-06-25T01:42:47.050Z,8.04672
2018-06-25T01:42:59.477Z,9.656064
2018-06-25T01:43:11.879Z,8.04672
2018-06-25T01:43:24.294Z,9.656064
2018-06-25T01:43:36.701Z,8.04672
2018-06-25T01:43:49.110Z,6.437376
2018-06-25T01:44:01.537Z,1.609344
2018-06-25T01:44:14.011Z,3.218688
2018-06-25T01:44:26.477Z,3.218688
2018-06-25T01:44:39.053Z,6.437376
2018-06-25T01:44:51.451Z,9.656064
2018-06-25T01:45:03.925Z,6.437376
2018-06-25T01:45:16.371Z,9.656064
2018-06-25T01:45:28.759Z,9.656064
2018-06-25T01:45:41.193Z,9.656064
2018-06-25T01:45:53.844Z,6.437376
2018-06-25T01:46:06.272Z,8.04672
2018-06-25T01:46:18.701Z,6.437376
2018-06-25T01:46:31.127Z,8.04672
2018-06-25T01:46:43.535Z,6.437376
2018-06-25T01:46:55.945Z,6.437376
2018-06-25T01:47:08.365Z,3.218688
2018-06-25T01:47:20.797Z,6.437376
2018-06-25T01:47:33.211Z,6.437376
2018-06-25T01:47:45.738Z,6.437376
2018-06-25T01:47:58.139Z,6.437376
2018-06-25T01:48:10.564Z,8.04672
2018-06-25T01:48:22.984Z,9.656064
2018-06-25T01:48:35.546Z,8.04672
2018-06-25T01:48:47.961Z,6.437376
2018-06-25T01:49:00.375Z,6.437376
2018-06-25T01:49:12.804Z,3.218688
2018-06-25T01:49:25.280Z,3.218688
2018-06-25T01:49:37.684Z,8.04672
2018-06-25T01:49:50.085Z,9.656064
2018-06-25T01:50:02.493Z,8.04672
2018-06-25T01:50:14.925Z,3.218688
2018-06-25T01:50:27.324Z,3.218688
2018-06-25T01:50:39.765Z,8.04672
2018-06-25T01:50:52.307Z,8.04672
2018-06-25T01:51:04.731Z,4.828032
2018-06-25T01:51:17.153Z,8.04672
2018-06-25T01:51:29.564Z,6.437376
2018-06-25T01:51:41.994Z,6.437376
2018-06-25T01:51:54.391Z,3.218688
2018-06-25T01:52:06.818Z,1.609344
2018-06-25T01:52:19.278Z,3.218688
2018-06-25T01:52:31.693Z,1.609344
2018-06-25T01:52:44.108Z,3.218688
2018-06-25T01:52:56.534Z,3.218688
2018-06-25T01:53:08.926Z,6.437376
2018-06-25T01:53:21.341Z,4.828032
2018-06-25T01:53:33.749Z,6.437376
2018-06-25T01:53:46.185Z,3.218688
2018-06-25T01:53:58.598Z,6.437376
2018-06-25T01:54:11.034Z,6.437376
2018-06-25T01:54:23.435Z,8.04672
2018-06-25T01:54:35.849Z,6.437376
2018-06-25T01:54:48.317Z,6.437376
2018-06-25T01:55:00.727Z,3.218688
2018-06-25T01:55:13.122Z,3.218688
2018-06-25T01:55:25.530Z,6.437376
2018-06-25T01:55:37.971Z,8.04672
2018-06-25T01:55:50.354Z,3.218688
2018-06-25T01:56:02.760Z,6.437376
2018-06-25T01:56:15.217Z,8.04672
2018-06-25T01:56:27.623Z,6.437376
2018-06-25T01:56:40.027Z,8.04672
2018-06-25T01:56:52.457Z,6.437376
2018-06-25T01:57:04.867Z,6.437376
2018-06-25T01:57:17.301Z,8.04672
2018-06-25T01:57:29.697Z,6.437376
2018-06-25T01:57:42.097Z,4.828032
2018-06-25T01:57:54.507Z,3.218688
2018-06-25T01:58:06.900Z,1.609344
2018-06-25T01:58:19.370Z,3.218688
2018-06-25T01:58:31.751Z,3.218688
2018-06-25T01:58:44.234Z,8.04672
2018-06-25T01:58:56.630Z,1.609344
2018-06-25T01:59:09.100Z,3.218688
2018-06-25T01:59:21.512Z,3.218688
2018-06-25T01:59:33.919Z,3.218688
2018-06-25T01:59:46.352Z,1.609344
2018-06-25T01:59:58.759Z,1.609344
2018-06-25T02:00:11.245Z,0
2018-06-25T02:00:23.695Z,3.218688
2018-06-25T02:00:36.134Z,8.04672
2018-06-25T02:00:48.560Z,9.656064
2018-06-25T02:01:01.190Z,4.828032
2018-06-25T02:01:13.823Z,3.218688
2018-06-25T02:01:26.246Z,8.04672
2018-06-25T02:01:38.654Z,6.437376
2018-06-25T02:01:51.066Z,4.828032
2018-06-25T02:02:03.508Z,6.437376
2018-06-25T02:02:15.929Z,8.04672
2018-06-25T02:02:28.328Z,8.04672
2018-06-25T02:02:40.771Z,6.437376
2018-06-25T02:02:53.187Z,8.04672
2018-06-25T02:03:05.579Z,8.04672
2018-06-25T02:03:17.985Z,9.656064
2018-06-25T02:03:30.451Z,6.437376
2018-06-25T02:03:42.859Z,9.656064
2018-06-25T02:03:55.278Z,8.04672
2018-06-25T02:04:07.699Z,8.04672
2018-06-25T02:04:20.119Z,6.437376
2018-06-25T02:04:32.539Z,6.437376
2018-06-25T02:04:44.947Z,8.04672
2018-06-25T02:04:57.343Z,8.04672
2018-06-25T02:05:09.768Z,6.437376
2018-06-25T02:05:22.211Z,4.828032
2018-06-25T02:05:34.632Z,6.437376
2018-06-25T02:05:47.057Z,8.04672
2018-06-25T02:05:59.469Z,3.218688
2018-06-25T02:06:11.969Z,6.437376
2018-06-25T02:06:24.392Z,3.218688
2018-06-25T02:06:36.813Z,4.828032
2018-06-25T02:06:49.206Z,3.218688
2018-06-25T02:07:01.621Z,1.609344
2018-06-25T02:07:14.010Z,0
2018-06-25T02:07:26.387Z,1.609344
2018-06-25T02:07:38.808Z,1.609344
2018-06-25T02:07:51.277Z,3.218688
2018-06-25T02:08:03.688Z,1.609344
2018-06-25T02:08:16.096Z,6.437376
2018-06-25T02:08:28.496Z,6.437376
2018-06-25T02:08:40.892Z,3.218688
2018-06-25T02:08:53.301Z,3.218688
2018-06-25T02:09:05.698Z,8.04672
2018-06-25T02:09:18.118Z,6.437376
2018-06-25T02:09:30.500Z,3.218688
2018-06-25T02:09:42.898Z,3.218688
2018-06-25T02:09:55.296Z,1.609344
2018-06-25T02:10:07.687Z,1.609344
2018-06-25T02:10:20.089Z,3.218688
2018-06-25T02:10:32.526Z,1.609344
2018-06-25T02:10:44.931Z,1.609344
2018-06-25T02:10:57.338Z,8.04672
2018-06-25T02:11:09.739Z,6.437376
2018-06-25T02:11:22.157Z,4.828032
2018-06-25T02:11:34.611Z,1.609344
2018-06-25T02:11:47.004Z,4.828032
2018-06-25T02:11:59.391Z,1.609344
2018-06-25T02:12:11.786Z,4.828032
2018-06-25T02:12:24.192Z,4.828032
2018-06-25T02:12:36.601Z,3.218688
2018-06-25T02:12:49.067Z,3.218688
2018-06-25T02:13:01.479Z,1.609344
2018-06-25T02:13:13.892Z,3.218688
2018-06-25T02:13:26.304Z,3.218688
2018-06-25T02:13:38.718Z,6.437376
2018-06-25T02:13:51.123Z,8.04672
2018-06-25T02:14:03.510Z,8.04672
2018-06-25T02:14:15.905Z,4.828032
2018-06-25T02:14:28.298Z,3.218688
2018-06-25T02:14:40.724Z,1.609344
2018-06-25T02:14:53.131Z,3.218688
2018-06-25T02:15:05.544Z,3.218688
2018-06-25T02:15:17.948Z,3.218688
2018-06-25T02:15:30.339Z,3.218688
2018-06-25T02:15:42.754Z,3.218688
2018-06-25T02:15:55.155Z,1.609344
2018-06-25T02:16:07.563Z,1.609344
2018-06-25T02:16:19.976Z,1.609344
2018-06-25T02:16:32.384Z,1.609344
2018-06-25T02:16:44.861Z,0
2018-06-25T02:16:57.253Z,0
2018-06-25T02:17:09.684Z,1.609344
2018-06-25T02:17:22.081Z,1.609344
2018-06-25T02:17:34.478Z,3.218688
2018-06-25T02:17:46.882Z,4.828032
2018-06-25T02:17:59.339Z,6.437376
2018-06-25T02:18:11.754Z,6.437376
2018-06-25T02:18:24.171Z,6.437376
2018-06-25T02:18:36.576Z,4.828032
2018-06-25T02:18:49.030Z,3.218688
2018-06-25T02:19:01.510Z,3.218688
2018-06-25T02:19:13.917Z,3.218688
2018-06-25T02:19:26.317Z,3.218688
2018-06-25T02:19:38.706Z,3.218688
2018-06-25T02:19:51.126Z,6.437376
2018-06-25T02:20:03.579Z,6.437376
2018-06-25T02:20:15.974Z,6.437376
2018-06-25T02:20:28.370Z,4.828032
2018-06-25T02:20:40.894Z,8.04672
2018-06-25T02:20:53.315Z,4.828032
2018-06-25T02:21:05.726Z,8.04672
2018-06-25T02:21:18.122Z,6.437376
2018-06-25T02:21:30.522Z,1.609344
2018-06-25T02:21:42.969Z,1.609344
2018-06-25T02:21:55.366Z,6.437376
2018-06-25T02:22:07.769Z,6.437376
2018-06-25T02:22:20.166Z,6.437376
2018-06-25T02:22:32.558Z,3.218688
2018-06-25T02:22:44.952Z,6.437376
2018-06-25T02:22:57.350Z,1.609344
2018-06-25T02:23:09.746Z,1.609344
2018-06-25T02:23:22.149Z,4.828032
2018-06-25T02:23:34.536Z,6.437376
2018-06-25T02:23:46.929Z,6.437376
2018-06-25T02:23:59.310Z,6.437376
2018-06-25T02:24:11.707Z,8.04672
2018-06-25T02:24:24.103Z,9.656064
2018-06-25T02:24:36.524Z,8.04672
2018-06-25T02:24:48.920Z,4.828032
2018-06-25T02:25:01.327Z,6.437376
2018-06-25T02:25:13.711Z,6.437376
2018-06-25T02:25:26.102Z,9.656064
2018-06-25T02:25:38.533Z,9.656064
2018-06-25T02:25:50.948Z,8.04672
2018-06-25T02:26:03.351Z,8.04672
2018-06-25T02:26:15.763Z,6.437376
2018-06-25T02:26:28.382Z,9.656064
2018-06-25T02:26:40.784Z,6.437376
2018-06-25T02:26:53.348Z,6.437376
2018-06-25T02:27:05.751Z,8.04672
2018-06-25T02:27:18.148Z,8.04672
2018-06-25T02:27:30.533Z,6.437376